createdAt,value
2022-08-03T00:02:19.702Z,21.54
2022-08-03T00:04:47.646Z,21.56
2022-08-03T00:07:15.546Z,21.52
2022-08-03T00:09:43.164Z,21.56
2022-08-03T00:14:38.294Z,21.45
2022-08-03T00:17:05.856Z,21.41
2022-08-03T00:19:34.813Z,21.45
2022-08-03T00:22:02.340Z,21.46
2022-08-03T00:26:58.844Z,21.40
2022-08-03T00:29:26.388Z,21.41
2022-08-03T00:34:36.417Z,21.37
2022-08-03T00:37:16.283Z,21.33
2022-08-03T00:39:46.010Z,21.30
2022-08-03T00:42:14.057Z,21.26
2022-08-03T00:44:43.665Z,21.20
2022-08-03T00:47:12.398Z,21.25
2022-08-03T00:49:41.324Z,21.27
2022-08-03T00:52:10.517Z,21.20
2022-08-03T00:54:38.833Z,21.22
2022-08-03T00:57:07.340Z,21.14
2022-08-03T00:59:35.307Z,21.15
2022-08-03T01:02:02.960Z,21.12
2022-08-03T01:04:31.821Z,21.07
2022-08-03T01:07:23.138Z,21.06
2022-08-03T01:09:58.287Z,20.98
2022-08-03T01:12:49.012Z,20.95
2022-08-03T01:15:24.142Z,20.89
2022-08-03T01:18:08.143Z,20.86
2022-08-03T01:20:41.425Z,20.81
2022-08-03T01:23:18.108Z,20.68
2022-08-03T01:26:24.427Z,20.69
2022-08-03T01:29:11.201Z,20.66
2022-08-03T01:32:54.551Z,20.65
2022-08-03T01:34:40.819Z,20.65
2022-08-03T01:37:11.110Z,20.59
2022-08-03T01:39:41.594Z,20.58
2022-08-03T01:42:14.265Z,20.52
2022-08-03T01:44:45.117Z,20.49
2022-08-03T01:47:13.448Z,20.48
2022-08-03T01:49:44.919Z,20.33
2022-08-03T01:52:17.519Z,20.23
2022-08-03T01:54:48.852Z,20.16
2022-08-03T01:57:17.854Z,20.05
2022-08-03T01:59:48.818Z,20.01
2022-08-03T02:02:33.062Z,19.99
2022-08-03T02:05:04.707Z,19.91
2022-08-03T02:07:34.608Z,19.87
2022-08-03T02:10:06.056Z,19.88
2022-08-03T02:12:35.028Z,19.72
2022-08-03T02:15:03.697Z,19.61
2022-08-03T02:17:38.938Z,19.63
2022-08-03T02:20:11.302Z,19.60
2022-08-03T02:22:45.067Z,19.56
2022-08-03T02:25:14.256Z,19.57
2022-08-03T02:27:49.413Z,19.64
2022-08-03T02:30:17.220Z,19.62
2022-08-03T02:32:52.137Z,19.59
2022-08-03T02:35:23.048Z,19.60
2022-08-03T02:37:58.969Z,19.57
2022-08-03T02:40:29.336Z,19.57
2022-08-03T02:43:00.571Z,19.49
2022-08-03T02:45:29.973Z,19.36
2022-08-03T02:48:03.764Z,19.38
2022-08-03T02:50:33.808Z,19.41
2022-08-03T02:53:03.634Z,19.48
2022-08-03T02:55:35.110Z,19.55
2022-08-03T02:58:04.555Z,19.62
2022-08-03T03:00:34.535Z,19.71
2022-08-03T03:03:04.576Z,19.74
2022-08-03T03:05:52.162Z,19.73
2022-08-03T03:08:27.474Z,19.78
2022-08-03T03:10:59.523Z,19.83
2022-08-03T03:13:31.122Z,19.82
2022-08-03T03:16:02.691Z,19.86
2022-08-03T03:18:33.313Z,19.91
2022-08-03T03:21:04.975Z,19.96
2022-08-03T03:23:36.726Z,19.97
2022-08-03T03:26:05.544Z,19.98
2022-08-03T03:28:34.471Z,19.92
2022-08-03T03:31:02.120Z,19.94
2022-08-03T03:33:30.205Z,19.95
2022-08-03T03:35:58.801Z,20.12
2022-08-03T03:38:26.990Z,20.30
2022-08-03T03:40:56.044Z,20.34
2022-08-03T03:43:24.336Z,20.23
2022-08-03T03:45:53.795Z,20.30
2022-08-03T03:48:21.742Z,20.22
2022-08-03T03:50:50.117Z,20.22
2022-08-03T03:53:17.734Z,20.30
2022-08-03T03:55:59.131Z,20.36
2022-08-03T03:58:31.709Z,20.33
2022-08-03T04:00:59.956Z,20.24
2022-08-03T04:03:27.962Z,20.21
2022-08-03T04:06:14.254Z,20.18
2022-08-03T04:09:00.404Z,20.17
2022-08-03T04:11:32.161Z,20.24
2022-08-03T04:14:13.347Z,20.30
2022-08-03T04:16:45.305Z,20.35
2022-08-03T04:19:22.719Z,20.44
2022-08-03T04:21:56.878Z,20.55
2022-08-03T04:24:30.055Z,20.64
2022-08-03T04:26:59.355Z,20.69
2022-08-03T04:29:29.582Z,20.75
2022-08-03T04:32:00.084Z,20.74
2022-08-03T04:34:28.316Z,20.90
2022-08-03T04:37:00.713Z,21.00
2022-08-03T04:39:31.345Z,21.18
2022-08-03T04:42:08.068Z,21.25
2022-08-03T04:44:42.081Z,21.40
2022-08-03T04:47:09.791Z,21.43
2022-08-03T04:49:38.877Z,21.53
2022-08-03T04:52:10.123Z,21.61
2022-08-03T04:54:42.929Z,21.79
2022-08-03T04:57:22.874Z,21.95
2022-08-03T05:00:01.390Z,21.99
2022-08-03T05:02:31.109Z,22.10
2022-08-03T05:04:58.937Z,22.20
2022-08-03T05:07:26.617Z,22.24
2022-08-03T05:10:15.772Z,22.34
2022-08-03T05:12:46.156Z,22.49
2022-08-03T05:15:14.198Z,22.72
2022-08-03T05:17:42.030Z,22.71
2022-08-03T05:20:10.808Z,22.62
2022-08-03T05:22:38.835Z,22.61
2022-08-03T05:25:07.061Z,22.51
2022-08-03T05:27:35.277Z,22.53
2022-08-03T05:30:32.341Z,22.58
2022-08-03T05:32:51.978Z,22.71
2022-08-03T05:36:02.676Z,22.55
2022-08-03T05:38:07.310Z,22.47
2022-08-03T05:40:36.993Z,22.39
2022-08-03T05:43:04.861Z,22.42
2022-08-03T05:45:32.494Z,22.45
2022-08-03T05:48:00.261Z,22.46
2022-08-03T06:03:13.936Z,22.54
2022-08-03T06:05:43.293Z,22.64
2022-08-03T06:08:23.528Z,22.84
2022-08-03T06:10:51.171Z,22.98
2022-08-03T06:13:19.060Z,23.12
2022-08-03T06:15:46.666Z,23.15
2022-08-03T06:18:14.244Z,23.11
2022-08-03T06:20:41.850Z,23.16
2022-08-03T06:23:15.937Z,23.20
2022-08-03T06:25:45.652Z,23.33
2022-08-03T06:28:51.727Z,23.38
2022-08-03T06:31:06.587Z,23.38
2022-08-03T06:34:30.489Z,23.45
2022-08-03T06:36:22.018Z,23.56
2022-08-03T06:38:49.642Z,23.69
2022-08-03T06:41:17.221Z,23.76
2022-08-03T06:44:03.350Z,23.82
2022-08-03T06:46:32.023Z,23.91
2022-08-03T06:48:59.934Z,24.11
2022-08-03T06:52:05.268Z,24.30
2022-08-03T06:54:15.211Z,24.33
2022-08-03T06:56:42.993Z,24.31
2022-08-03T06:59:10.688Z,24.35
2022-08-03T07:01:59.335Z,24.59
2022-08-03T07:04:26.917Z,24.43
2022-08-03T07:06:55.324Z,24.51
2022-08-03T07:09:23.106Z,24.35
2022-08-03T07:11:50.745Z,24.33
2022-08-03T07:14:18.407Z,24.45
2022-08-03T07:16:45.970Z,24.51
2022-08-03T07:19:13.735Z,24.53
2022-08-03T07:21:41.291Z,24.71
2022-08-03T07:24:08.925Z,24.83
2022-08-03T07:26:36.529Z,24.70
2022-08-03T07:29:04.265Z,24.65
2022-08-03T07:31:42.578Z,24.80
2022-08-03T07:34:10.288Z,24.80
2022-08-03T07:36:38.312Z,24.89
2022-08-03T07:39:15.801Z,25.04
2022-08-03T07:41:46.859Z,25.06
2022-08-03T07:44:14.677Z,25.16
2022-08-03T07:46:42.233Z,25.42
2022-08-03T07:49:11.578Z,25.52
2022-08-03T07:51:39.534Z,25.76
2022-08-03T07:54:07.824Z,25.92
2022-08-03T07:56:35.649Z,26.06
2022-08-03T07:59:04.070Z,26.30
2022-08-03T08:01:34.199Z,26.34
2022-08-03T08:04:01.926Z,26.40
2022-08-03T08:06:29.874Z,26.51
2022-08-03T08:09:02.361Z,26.56
2022-08-03T08:11:30.162Z,26.36
2022-08-03T08:13:57.924Z,26.35
2022-08-03T08:16:25.510Z,26.26
2022-08-03T08:18:53.188Z,26.28
2022-08-03T08:21:20.807Z,26.32
2022-08-03T08:23:54.940Z,26.17
2022-08-03T08:26:25.168Z,26.23
2022-08-03T08:28:53.204Z,26.26
2022-08-03T08:31:20.779Z,26.19
2022-08-03T08:34:03.775Z,26.22
2022-08-03T08:36:34.250Z,26.27
2022-08-03T08:39:02.347Z,26.29
2022-08-03T08:41:33.854Z,26.46
2022-08-03T08:44:02.212Z,26.43
2022-08-03T08:46:33.569Z,26.44
2022-08-03T08:49:04.994Z,26.51
2022-08-03T08:51:54.601Z,26.49
2022-08-03T08:54:26.091Z,26.60
2022-08-03T08:56:56.205Z,26.52
2022-08-03T08:59:24.474Z,26.80
2022-08-03T09:01:56.808Z,26.83
2022-08-03T09:04:24.964Z,26.94
2022-08-03T09:07:10.806Z,27.07
2022-08-03T09:10:10.982Z,26.71
2022-08-03T09:12:41.828Z,26.53
2022-08-03T09:15:38.223Z,26.30
2022-08-03T09:18:05.966Z,26.08
2022-08-03T09:20:35.138Z,25.99
2022-08-03T09:23:19.110Z,25.81
2022-08-03T09:26:00.141Z,25.89
2022-08-03T09:29:00.005Z,25.73
2022-08-03T09:31:42.998Z,25.84
2022-08-03T09:34:13.846Z,26.05
2022-08-03T09:36:50.266Z,26.29
2022-08-03T09:39:18.743Z,26.40
2022-08-03T09:42:05.451Z,26.35
2022-08-03T09:44:38.922Z,26.35
2022-08-03T09:47:06.697Z,26.14
2022-08-03T09:49:34.449Z,26.07
2022-08-03T09:52:33.958Z,26.00
2022-08-03T09:55:01.609Z,25.64
2022-08-03T09:57:30.890Z,25.56
2022-08-03T10:00:12.157Z,25.34
2022-08-03T10:02:45.403Z,25.05
2022-08-03T10:05:19.396Z,25.02
2022-08-03T10:07:49.895Z,25.06
2022-08-03T10:10:31.872Z,25.10
2022-08-03T10:13:00.398Z,25.14
2022-08-03T10:16:24.077Z,25.13
2022-08-03T10:18:16.110Z,24.98
2022-08-03T10:20:51.806Z,24.89
2022-08-03T10:23:21.758Z,24.89
2022-08-03T10:25:53.423Z,24.82
2022-08-03T10:28:22.506Z,24.61
2022-08-03T10:30:52.988Z,24.23
2022-08-03T10:33:51.218Z,24.23
2022-08-03T10:36:13.176Z,24.17
2022-08-03T10:38:47.444Z,24.21
2022-08-03T10:41:19.359Z,24.40
2022-08-03T10:44:05.621Z,24.62
2022-08-03T10:46:34.865Z,24.29
2022-08-03T10:49:03.755Z,24.02
2022-08-03T10:51:32.459Z,24.02
2022-08-03T10:54:01.901Z,24.22
2022-08-03T10:56:51.211Z,24.37
2022-08-03T10:59:22.980Z,24.58
2022-08-03T11:01:59.085Z,24.46
2022-08-03T11:04:27.397Z,24.44
2022-08-03T11:07:19.769Z,24.62
2022-08-03T11:09:49.825Z,24.97
2022-08-03T11:12:33.839Z,25.72
2022-08-03T11:15:08.930Z,25.85
2022-08-03T11:17:46.582Z,25.93
2022-08-03T11:20:46.028Z,25.75
2022-08-03T11:23:15.793Z,25.27
2022-08-03T11:26:12.454Z,25.26
2022-08-03T11:28:41.415Z,25.30
2022-08-03T11:31:49.882Z,25.39
2022-08-03T11:34:14.876Z,25.56
2022-08-03T11:37:27.259Z,25.78
2022-08-03T11:39:57.724Z,25.74
2022-08-03T11:42:26.376Z,25.72
2022-08-03T11:44:59.482Z,25.97
2022-08-03T11:47:29.274Z,26.02
2022-08-03T11:50:00.679Z,26.28
2022-08-03T11:52:35.083Z,26.08
2022-08-03T11:55:08.527Z,25.95
2022-08-03T11:59:01.447Z,26.02
2022-08-03T12:00:33.334Z,25.65
2022-08-03T12:03:02.404Z,25.78
2022-08-03T12:05:38.189Z,26.05
2022-08-03T12:08:08.996Z,26.26
2022-08-03T12:10:38.072Z,26.19
2022-08-03T12:14:45.267Z,26.11
2022-08-03T12:15:59.385Z,26.18
2022-08-03T12:18:27.116Z,26.37
2022-08-03T12:21:05.010Z,26.40
2022-08-03T12:23:37.547Z,26.27
2022-08-03T12:26:10.420Z,26.36
2022-08-03T12:28:38.949Z,26.41
2022-08-03T12:31:09.402Z,26.43
2022-08-03T12:33:58.781Z,26.30
2022-08-03T12:36:27.885Z,25.95
2022-08-03T12:39:07.204Z,25.63
2022-08-03T12:41:39.013Z,25.68
2022-08-03T12:44:08.180Z,25.54
2022-08-03T12:46:37.342Z,25.46
2022-08-03T12:49:11.142Z,25.42
2022-08-03T12:52:04.054Z,25.55
2022-08-03T12:54:35.930Z,25.78
2022-08-03T12:57:03.566Z,25.74
2022-08-03T12:59:35.373Z,25.79
2022-08-03T13:02:20.247Z,25.89
2022-08-03T13:04:53.392Z,26.05
2022-08-03T13:07:21.669Z,26.34
2022-08-03T13:09:55.070Z,26.48
2022-08-03T13:12:24.965Z,26.41
2022-08-03T13:14:56.235Z,26.28
2022-08-03T13:17:24.402Z,26.24
2022-08-03T13:19:52.291Z,26.11
2022-08-03T13:22:25.056Z,26.07
2022-08-03T13:24:58.365Z,25.90
2022-08-03T13:28:03.348Z,25.90
2022-08-03T13:30:21.071Z,25.95
2022-08-03T13:33:00.212Z,25.96
2022-08-03T13:35:27.867Z,25.91
2022-08-03T13:37:55.485Z,25.74
2022-08-03T13:40:23.666Z,25.83
2022-08-03T13:42:58.103Z,26.04
2022-08-03T13:45:27.553Z,26.21
2022-08-03T13:47:55.098Z,26.09
2022-08-03T13:50:22.661Z,26.04
2022-08-03T13:52:50.157Z,26.02
2022-08-03T13:55:17.731Z,25.98
2022-08-03T13:58:06.580Z,26.18
2022-08-03T14:00:32.885Z,26.35
2022-08-03T14:03:09.118Z,26.28
2022-08-03T14:05:41.014Z,25.92
2022-08-03T14:08:09.243Z,25.96
2022-08-03T14:10:45.834Z,25.96
2022-08-03T14:13:17.881Z,25.82
2022-08-03T14:15:51.226Z,25.88
2022-08-03T14:18:28.673Z,25.84
2022-08-03T14:21:06.282Z,25.84
2022-08-03T14:23:36.490Z,25.72
2022-08-03T14:26:05.785Z,25.50
2022-08-03T14:28:34.190Z,25.41
2022-08-03T14:31:02.740Z,25.41
2022-08-03T14:33:30.299Z,25.47
2022-08-03T14:35:58.009Z,25.42
2022-08-03T14:38:25.626Z,25.32
2022-08-03T14:40:53.343Z,25.37
2022-08-03T14:43:23.873Z,25.46
2022-08-03T14:45:53.715Z,25.55
2022-08-03T14:50:34.482Z,25.54
2022-08-03T14:51:10.583Z,25.55
2022-08-03T14:53:38.345Z,25.81
2022-08-03T14:56:10.158Z,25.78
2022-08-03T14:58:38.731Z,26.14
2022-08-03T15:02:04.485Z,26.47
2022-08-03T15:03:55.426Z,26.57
2022-08-03T15:06:23.015Z,26.63
2022-08-03T15:09:13.798Z,26.55
2022-08-03T15:11:38.669Z,26.60
2022-08-03T15:14:09.396Z,26.60
2022-08-03T15:16:38.634Z,25.97
2022-08-03T15:20:05.477Z,25.16
2022-08-03T15:21:54.341Z,24.02
2022-08-03T15:24:22.043Z,23.19
2022-08-03T15:26:51.421Z,22.64
2022-08-03T15:30:07.717Z,22.33
2022-08-03T15:32:09.602Z,22.12
2022-08-03T15:34:37.458Z,21.91
2022-08-03T15:37:16.214Z,21.91
2022-08-03T15:39:59.621Z,21.88
2022-08-03T15:42:33.574Z,21.97
2022-08-03T15:45:01.479Z,21.95
2022-08-03T15:47:29.301Z,21.88
2022-08-03T15:49:57.119Z,21.87
2022-08-03T15:52:24.777Z,21.91
2022-08-03T15:54:52.542Z,22.02
2022-08-03T15:57:20.932Z,22.15
2022-08-03T15:59:48.787Z,22.22
2022-08-03T16:02:16.479Z,22.28
2022-08-03T16:04:44.222Z,22.46
2022-08-03T16:07:12.895Z,22.58
2022-08-03T16:09:43.317Z,22.64
2022-08-03T16:12:15.721Z,22.68
2022-08-03T16:14:52.734Z,22.65
2022-08-03T16:17:21.924Z,22.77
2022-08-03T16:19:50.425Z,22.83
2022-08-03T16:22:25.859Z,22.90
2022-08-03T16:24:54.754Z,22.91
2022-08-03T16:27:56.804Z,22.88
2022-08-03T16:30:12.456Z,22.91
2022-08-03T16:32:40.087Z,22.93
2022-08-03T16:35:08.390Z,22.91
2022-08-03T16:37:38.728Z,22.93
2022-08-03T16:40:17.088Z,22.95
2022-08-03T16:42:45.749Z,22.95
2022-08-03T16:45:13.677Z,22.99
2022-08-03T16:47:41.397Z,23.04
2022-08-03T16:50:15.815Z,23.06
2022-08-03T16:52:47.381Z,23.08
2022-08-03T16:55:16.036Z,23.07
2022-08-03T16:58:05.158Z,23.05
2022-08-03T17:00:41.798Z,23.00
2022-08-03T17:03:18.742Z,22.98
2022-08-03T17:05:50.125Z,22.98
2022-08-03T17:08:26.184Z,22.91
2022-08-03T17:10:56.108Z,22.85
2022-08-03T17:13:38.956Z,22.90
2022-08-03T17:16:10.530Z,22.88
2022-08-03T17:18:47.388Z,22.88
2022-08-03T17:21:16.762Z,22.92
2022-08-03T17:23:54.801Z,22.91
2022-08-03T17:26:23.776Z,22.96
2022-08-03T17:29:11.355Z,22.89
2022-08-03T17:31:49.336Z,22.92
2022-08-03T17:34:19.161Z,22.95
2022-08-03T17:37:05.496Z,22.97
2022-08-03T17:39:58.833Z,22.87
2022-08-03T17:42:30.769Z,22.88
2022-08-03T17:45:02.392Z,22.89
2022-08-03T17:47:41.935Z,22.89
2022-08-03T17:50:25.026Z,22.89
2022-08-03T17:53:15.213Z,22.90
2022-08-03T17:56:42.530Z,22.87
2022-08-03T17:59:16.122Z,22.85
2022-08-03T18:02:33.402Z,22.82
2022-08-03T18:05:16.067Z,22.88
2022-08-03T18:08:01.507Z,22.87
2022-08-03T18:10:36.325Z,22.89
2022-08-03T18:13:30.577Z,22.86
2022-08-03T18:16:06.526Z,22.85
2022-08-03T18:18:43.068Z,22.89
2022-08-03T18:21:16.985Z,22.84
2022-08-03T18:23:45.936Z,22.80
2022-08-03T18:26:18.965Z,22.79
2022-08-03T18:28:49.411Z,22.81
2022-08-03T18:31:59.719Z,22.79
2022-08-03T18:36:58.413Z,22.78
2022-08-03T18:39:27.926Z,22.80
2022-08-03T18:41:57.653Z,22.74
2022-08-03T18:44:52.631Z,22.67
2022-08-03T18:47:55.386Z,22.69
2022-08-03T18:50:37.230Z,22.70
2022-08-03T18:53:19.311Z,22.64
2022-08-03T18:56:03.348Z,22.66
2022-08-03T18:59:02.267Z,22.62
2022-08-03T19:02:00.827Z,22.63
2022-08-03T19:04:42.253Z,22.60
2022-08-03T19:07:17.696Z,22.58
2022-08-03T19:09:54.810Z,22.57
2022-08-03T19:12:31.137Z,22.55
2022-08-03T19:15:15.571Z,22.55
2022-08-03T19:17:53.356Z,22.49
2022-08-03T19:20:30.914Z,22.44
2022-08-03T19:23:00.275Z,22.47
2022-08-03T19:25:34.803Z,22.39
2022-08-03T19:28:08.861Z,22.38
2022-08-03T19:30:46.462Z,22.37
2022-08-03T19:33:22.833Z,22.39
2022-08-03T19:35:54.600Z,22.39
2022-08-03T19:38:28.360Z,22.42
2022-08-03T19:41:00.930Z,22.41
2022-08-03T19:43:52.850Z,22.37
2022-08-03T19:46:30.160Z,22.34
2022-08-03T19:49:15.372Z,22.29
2022-08-03T19:52:02.592Z,22.27
2022-08-03T19:54:53.239Z,22.31
2022-08-03T19:57:27.308Z,22.31
2022-08-03T19:59:56.957Z,22.30
2022-08-03T20:02:26.767Z,22.28
2022-08-03T20:04:57.352Z,22.25
2022-08-03T20:07:25.978Z,22.22
2022-08-03T20:09:56.554Z,22.17
2022-08-03T20:12:29.201Z,22.19
2022-08-03T20:14:58.238Z,22.14
2022-08-03T20:17:54.410Z,22.11
2022-08-03T20:20:19.830Z,22.05
2022-08-03T20:22:52.904Z,22.04
2022-08-03T20:25:38.613Z,22.04
2022-08-03T20:28:14.331Z,22.10
2022-08-03T20:30:44.423Z,22.04
2022-08-03T20:33:18.411Z,22.07
2022-08-03T20:35:49.534Z,22.10
2022-08-03T20:38:19.233Z,22.09
2022-08-03T20:40:48.464Z,22.07
2022-08-03T20:43:17.089Z,22.13
2022-08-03T20:45:59.415Z,22.10
2022-08-03T20:48:37.376Z,22.13
2022-08-03T20:51:19.349Z,22.11
2022-08-03T20:53:59.438Z,22.07
2022-08-03T20:56:35.980Z,22.08
2022-08-03T20:59:14.968Z,22.05
2022-08-03T21:01:44.370Z,22.06
2022-08-03T21:04:13.473Z,22.00
2022-08-03T21:06:58.448Z,22.00
2022-08-03T21:09:33.346Z,21.90
2022-08-03T21:12:11.555Z,21.86
2022-08-03T21:13:04.919Z,22.78
2022-08-03T21:14:51.887Z,21.90
2022-08-03T21:17:38.358Z,21.96
2022-08-03T21:20:10.005Z,21.90
2022-08-03T21:22:42.735Z,21.90
2022-08-03T21:25:12.985Z,21.97
2022-08-03T21:27:41.821Z,21.97
2022-08-03T21:30:10.717Z,21.98
2022-08-03T21:32:40.420Z,22.03
2022-08-03T21:35:10.292Z,22.05
2022-08-03T21:37:40.042Z,22.04
2022-08-03T21:40:10.809Z,22.02
2022-08-03T21:42:43.925Z,22.04
2022-08-03T21:45:17.083Z,22.00
2022-08-03T21:47:45.760Z,22.12
2022-08-03T21:50:13.914Z,22.12
2022-08-03T21:52:46.606Z,22.14
2022-08-03T21:55:18.412Z,22.11
2022-08-03T21:57:53.667Z,22.07
2022-08-03T22:00:25.948Z,22.13
2022-08-03T22:02:58.609Z,22.09
2022-08-03T22:05:42.432Z,22.05
2022-08-03T22:08:14.496Z,22.04
2022-08-03T22:10:46.151Z,22.03
2022-08-03T22:13:14.996Z,21.99
2022-08-03T22:15:42.657Z,22.02
2022-08-03T22:18:10.735Z,22.01
2022-08-03T22:20:38.298Z,22.04
2022-08-03T22:23:07.520Z,22.11
2022-08-03T22:25:38.612Z,22.13
2022-08-03T22:28:09.940Z,22.14
2022-08-03T22:30:38.957Z,22.14
2022-08-03T22:33:11.038Z,22.13
2022-08-03T22:35:48.241Z,22.17
2022-08-03T22:38:18.435Z,22.10
2022-08-03T22:40:49.899Z,22.00
2022-08-03T22:43:17.541Z,21.98
2022-08-03T22:46:08.931Z,22.00
2022-08-03T22:48:41.343Z,21.96
2022-08-03T22:51:10.559Z,21.92
2022-08-03T22:53:39.737Z,21.93
2022-08-03T22:56:08.816Z,21.94
2022-08-03T22:58:36.594Z,21.83
2022-08-03T23:01:08.021Z,21.83
2022-08-03T23:04:01.221Z,21.87
2022-08-03T23:06:33.315Z,21.93
2022-08-03T23:09:06.886Z,21.88
2022-08-03T23:11:45.437Z,21.82
2022-08-03T23:14:16.159Z,21.85
2022-08-03T23:16:45.915Z,21.74
2022-08-03T23:19:17.411Z,21.73
2022-08-03T23:22:02.859Z,21.74
2022-08-03T23:24:36.069Z,21.70
2022-08-03T23:27:08.695Z,21.69
2022-08-03T23:29:43.114Z,21.73
2022-08-03T23:32:13.046Z,21.68
2022-08-03T23:35:01.484Z,21.65
2022-08-03T23:37:30.138Z,21.62
2022-08-03T23:39:59.416Z,21.46
2022-08-03T23:42:27.642Z,21.50
2022-08-03T23:45:05.450Z,21.53
2022-08-03T23:47:46.235Z,21.58
2022-08-03T23:50:16.026Z,21.61
2022-08-03T23:53:02.608Z,21.63
2022-08-03T23:56:01.065Z,21.56
2022-08-03T23:59:01.122Z,21.56
